sensor_id;sensor_type;location;lat;lon;timestamp;P1;durP1;ratioP1;P2;durP2;ratioP2
40204;SDS011;26963;42.666;23.366;2022-12-26T00:01:16;24.47;;;14.73;;
40204;SDS011;26963;42.666;23.366;2022-12-26T00:03:45;23.15;;;14.57;;
40204;SDS011;26963;42.666;23.366;2022-12-26T00:06:11;20.33;;;13.48;;
40204;SDS011;26963;42.666;23.366;2022-12-26T00:08:41;22.38;;;14.25;;
40204;SDS011;26963;42.666;23.366;2022-12-26T00:11:08;21.58;;;13.70;;
40204;SDS011;26963;42.666;23.366;2022-12-26T00:13:34;25.25;;;14.35;;
40204;SDS011;26963;42.666;23.366;2022-12-26T00:15:59;19.25;;;14.75;;
40204;SDS011;26963;42.666;23.366;2022-12-26T00:18:31;24.65;;;15.02;;
40204;SDS011;26963;42.666;23.366;2022-12-26T00:20:56;19.25;;;13.52;;
40204;SDS011;26963;42.666;23.366;2022-12-26T00:23:22;20.15;;;13.93;;
40204;SDS011;26963;42.666;23.366;2022-12-26T00:25:50;20.35;;;13.15;;
40204;SDS011;26963;42.666;23.366;2022-12-26T00:28:15;21.35;;;13.88;;
40204;SDS011;26963;42.666;23.366;2022-12-26T00:30:44;20.98;;;13.68;;
40204;SDS011;26963;42.666;23.366;2022-12-26T00:33:13;23.08;;;13.55;;
40204;SDS011;26963;42.666;23.366;2022-12-26T00:35:38;22.88;;;13.95;;
40204;SDS011;26963;42.666;23.366;2022-12-26T00:38:04;20.77;;;13.73;;
40204;SDS011;26963;42.666;23.366;2022-12-26T00:40:29;22.70;;;14.93;;
40204;SDS011;26963;42.666;23.366;2022-12-26T00:42:54;22.00;;;13.93;;
40204;SDS011;26963;42.666;23.366;2022-12-26T00:45:20;19.05;;;13.23;;
40204;SDS011;26963;42.666;23.366;2022-12-26T00:47:45;19.77;;;13.27;;
40204;SDS011;26963;42.666;23.366;2022-12-26T00:50:14;20.80;;;13.57;;
40204;SDS011;26963;42.666;23.366;2022-12-26T00:52:40;18.75;;;12.85;;
40204;SDS011;26963;42.666;23.366;2022-12-26T00:55:05;19.77;;;13.57;;
40204;SDS011;26963;42.666;23.366;2022-12-26T00:57:31;20.48;;;13.05;;
40204;SDS011;26963;42.666;23.366;2022-12-26T00:59:56;23.15;;;13.23;;
40204;SDS011;26963;42.666;23.366;2022-12-26T01:02:22;22.08;;;13.95;;
40204;SDS011;26963;42.666;23.366;2022-12-26T01:05:03;18.75;;;12.63;;
40204;SDS011;26963;42.666;23.366;2022-12-26T01:07:33;22.33;;;13.18;;
40204;SDS011;26963;42.666;23.366;2022-12-26T01:10:03;22.20;;;13.32;;
40204;SDS011;26963;42.666;23.366;2022-12-26T01:12:30;18.30;;;12.80;;
40204;SDS011;26963;42.666;23.366;2022-12-26T01:14:56;21.73;;;14.32;;
40204;SDS011;26963;42.666;23.366;2022-12-26T01:17:23;25.50;;;14.23;;
40204;SDS011;26963;42.666;23.366;2022-12-26T01:19:49;21.90;;;13.73;;
40204;SDS011;26963;42.666;23.366;2022-12-26T01:22:16;22.42;;;14.25;;
40204;SDS011;26963;42.666;23.366;2022-12-26T01:24:44;19.20;;;13.43;;
40204;SDS011;26963;42.666;23.366;2022-12-26T01:27:10;22.00;;;14.40;;
40204;SDS011;26963;42.666;23.366;2022-12-26T01:29:36;21.67;;;14.20;;
40204;SDS011;26963;42.666;23.366;2022-12-26T01:32:01;22.50;;;13.98;;
40204;SDS011;26963;42.666;23.366;2022-12-26T01:34:27;19.52;;;12.98;;
40204;SDS011;26963;42.666;23.366;2022-12-26T01:36:53;20.02;;;13.52;;
40204;SDS011;26963;42.666;23.366;2022-12-26T01:39:19;21.27;;;13.00;;
40204;SDS011;26963;42.666;23.366;2022-12-26T01:41:45;20.70;;;13.23;;
40204;SDS011;26963;42.666;23.366;2022-12-26T01:47:16;17.45;;;12.07;;
40204;SDS011;26963;42.666;23.366;2022-12-26T01:49:44;21.50;;;13.88;;
40204;SDS011;26963;42.666;23.366;2022-12-26T01:52:18;31.45;;;18.85;;
40204;SDS011;26963;42.666;23.366;2022-12-26T01:54:49;32.70;;;19.67;;
40204;SDS011;26963;42.666;23.366;2022-12-26T02:00:07;22.27;;;13.55;;
40204;SDS011;26963;42.666;23.366;2022-12-26T02:02:34;19.90;;;12.85;;
40204;SDS011;26963;42.666;23.366;2022-12-26T02:05:20;21.55;;;13.55;;
40204;SDS011;26963;42.666;23.366;2022-12-26T02:08:04;28.33;;;16.80;;
40204;SDS011;26963;42.666;23.366;2022-12-26T02:10:46;27.10;;;17.40;;
40204;SDS011;26963;42.666;23.366;2022-12-26T02:13:20;31.70;;;20.42;;
40204;SDS011;26963;42.666;23.366;2022-12-26T02:15:46;19.42;;;13.30;;
40204;SDS011;26963;42.666;23.366;2022-12-26T02:18:12;21.35;;;13.02;;
40204;SDS011;26963;42.666;23.366;2022-12-26T02:20:40;26.17;;;16.70;;
40204;SDS011;26963;42.666;23.366;2022-12-26T02:29:48;21.15;;;14.85;;
40204;SDS011;26963;42.666;23.366;2022-12-26T02:43:14;18.95;;;12.32;;
40204;SDS011;26963;42.666;23.366;2022-12-26T02:45:53;23.50;;;14.52;;
40204;SDS011;26963;42.666;23.366;2022-12-26T02:52:10;20.27;;;13.05;;
40204;SDS011;26963;42.666;23.366;2022-12-26T02:54:42;25.40;;;15.85;;
40204;SDS011;26963;42.666;23.366;2022-12-26T02:57:36;22.00;;;13.20;;
40204;SDS011;26963;42.666;23.366;2022-12-26T03:00:28;24.25;;;15.35;;
40204;SDS011;26963;42.666;23.366;2022-12-26T03:03:17;28.20;;;18.55;;
40204;SDS011;26963;42.666;23.366;2022-12-26T03:06:06;24.67;;;16.33;;
40204;SDS011;26963;42.666;23.366;2022-12-26T03:09:06;29.02;;;16.40;;
40204;SDS011;26963;42.666;23.366;2022-12-26T03:11:56;24.00;;;13.70;;
40204;SDS011;26963;42.666;23.366;2022-12-26T03:14:44;26.05;;;14.45;;
40204;SDS011;26963;42.666;23.366;2022-12-26T03:17:14;22.23;;;14.68;;
40204;SDS011;26963;42.666;23.366;2022-12-26T03:19:51;24.08;;;13.50;;
40204;SDS011;26963;42.666;23.366;2022-12-26T03:22:24;20.73;;;13.38;;
40204;SDS011;26963;42.666;23.366;2022-12-26T03:24:57;23.55;;;14.77;;
40204;SDS011;26963;42.666;23.366;2022-12-26T03:27:44;21.70;;;14.52;;
40204;SDS011;26963;42.666;23.366;2022-12-26T03:30:10;21.52;;;13.07;;
40204;SDS011;26963;42.666;23.366;2022-12-26T03:32:54;27.88;;;16.42;;
40204;SDS011;26963;42.666;23.366;2022-12-26T03:35:21;21.33;;;14.25;;
40204;SDS011;26963;42.666;23.366;2022-12-26T03:37:52;19.48;;;14.15;;
40204;SDS011;26963;42.666;23.366;2022-12-26T03:40:24;22.77;;;15.45;;
40204;SDS011;26963;42.666;23.366;2022-12-26T03:43:45;27.40;;;17.63;;
40204;SDS011;26963;42.666;23.366;2022-12-26T03:50:14;22.77;;;14.73;;
40204;SDS011;26963;42.666;23.366;2022-12-26T03:56:15;24.80;;;15.90;;
40204;SDS011;26963;42.666;23.366;2022-12-26T03:59:11;23.55;;;15.30;;
40204;SDS011;26963;42.666;23.366;2022-12-26T04:02:03;23.30;;;15.13;;
40204;SDS011;26963;42.666;23.366;2022-12-26T04:04:51;23.98;;;14.40;;
40204;SDS011;26963;42.666;23.366;2022-12-26T04:07:39;22.05;;;14.80;;
40204;SDS011;26963;42.666;23.366;2022-12-26T04:10:29;26.05;;;15.57;;
40204;SDS011;26963;42.666;23.366;2022-12-26T04:13:25;24.67;;;15.30;;
40204;SDS011;26963;42.666;23.366;2022-12-26T04:16:17;30.98;;;21.75;;
40204;SDS011;26963;42.666;23.366;2022-12-26T04:21:51;32.55;;;23.65;;
40204;SDS011;26963;42.666;23.366;2022-12-26T04:24:56;26.27;;;20.33;;
40204;SDS011;26963;42.666;23.366;2022-12-26T04:27:47;24.52;;;18.73;;
40204;SDS011;26963;42.666;23.366;2022-12-26T04:30:32;23.00;;;18.40;;
40204;SDS011;26963;42.666;23.366;2022-12-26T04:33:25;19.08;;;14.60;;
40204;SDS011;26963;42.666;23.366;2022-12-26T04:36:19;23.75;;;16.38;;
40204;SDS011;26963;42.666;23.366;2022-12-26T04:39:12;20.08;;;14.52;;
40204;SDS011;26963;42.666;23.366;2022-12-26T04:42:00;19.52;;;13.10;;
40204;SDS011;26963;42.666;23.366;2022-12-26T04:44:44;18.83;;;13.50;;
40204;SDS011;26963;42.666;23.366;2022-12-26T04:47:12;22.75;;;14.70;;
40204;SDS011;26963;42.666;23.366;2022-12-26T04:49:44;25.35;;;17.73;;
40204;SDS011;26963;42.666;23.366;2022-12-26T04:52:28;26.20;;;20.27;;
40204;SDS011;26963;42.666;23.366;2022-12-26T04:55:15;28.70;;;21.92;;
40204;SDS011;26963;42.666;23.366;2022-12-26T04:57:44;28.65;;;23.00;;
40204;SDS011;26963;42.666;23.366;2022-12-26T05:00:10;32.42;;;25.27;;
40204;SDS011;26963;42.666;23.366;2022-12-26T05:02:38;30.60;;;24.45;;
40204;SDS011;26963;42.666;23.366;2022-12-26T05:05:23;27.85;;;19.92;;
40204;SDS011;26963;42.666;23.366;2022-12-26T05:08:11;25.63;;;18.08;;
40204;SDS011;26963;42.666;23.366;2022-12-26T05:11:09;25.67;;;17.42;;
40204;SDS011;26963;42.666;23.366;2022-12-26T05:13:35;23.20;;;18.42;;
40204;SDS011;26963;42.666;23.366;2022-12-26T05:16:01;24.80;;;17.92;;
40204;SDS011;26963;42.666;23.366;2022-12-26T05:18:44;24.67;;;20.25;;
40204;SDS011;26963;42.666;23.366;2022-12-26T05:21:29;24.67;;;19.45;;
40204;SDS011;26963;42.666;23.366;2022-12-26T05:24:13;23.48;;;18.30;;
40204;SDS011;26963;42.666;23.366;2022-12-26T05:26:57;23.05;;;17.05;;
40204;SDS011;26963;42.666;23.366;2022-12-26T05:29:42;24.60;;;18.95;;
40204;SDS011;26963;42.666;23.366;2022-12-26T05:32:07;26.55;;;19.75;;
40204;SDS011;26963;42.666;23.366;2022-12-26T05:34:33;29.38;;;22.15;;
40204;SDS011;26963;42.666;23.366;2022-12-26T05:36:58;32.72;;;23.95;;
40204;SDS011;26963;42.666;23.366;2022-12-26T05:39:24;33.42;;;24.73;;
40204;SDS011;26963;42.666;23.366;2022-12-26T05:41:50;34.35;;;23.45;;
40204;SDS011;26963;42.666;23.366;2022-12-26T05:44:15;32.72;;;25.38;;
40204;SDS011;26963;42.666;23.366;2022-12-26T05:46:44;24.60;;;20.67;;
40204;SDS011;26963;42.666;23.366;2022-12-26T05:49:11;23.58;;;17.67;;
40204;SDS011;26963;42.666;23.366;2022-12-26T05:51:37;25.70;;;17.27;;
40204;SDS011;26963;42.666;23.366;2022-12-26T05:54:03;28.63;;;21.98;;
40204;SDS011;26963;42.666;23.366;2022-12-26T05:56:28;24.50;;;18.23;;
40204;SDS011;26963;42.666;23.366;2022-12-26T05:58:55;36.78;;;19.60;;
40204;SDS011;26963;42.666;23.366;2022-12-26T06:01:23;25.52;;;17.88;;
40204;SDS011;26963;42.666;23.366;2022-12-26T06:03:51;25.88;;;18.88;;
40204;SDS011;26963;42.666;23.366;2022-12-26T06:06:19;21.20;;;16.65;;
40204;SDS011;26963;42.666;23.366;2022-12-26T06:08:49;26.02;;;18.00;;
40204;SDS011;26963;42.666;23.366;2022-12-26T06:11:16;27.73;;;18.10;;
40204;SDS011;26963;42.666;23.366;2022-12-26T06:13:43;30.92;;;21.38;;
40204;SDS011;26963;42.666;23.366;2022-12-26T06:16:13;31.48;;;21.20;;
40204;SDS011;26963;42.666;23.366;2022-12-26T06:18:39;32.15;;;22.67;;
40204;SDS011;26963;42.666;23.366;2022-12-26T06:21:06;29.35;;;21.23;;
40204;SDS011;26963;42.666;23.366;2022-12-26T06:23:34;30.17;;;20.83;;
40204;SDS011;26963;42.666;23.366;2022-12-26T06:26:00;30.73;;;20.38;;
40204;SDS011;26963;42.666;23.366;2022-12-26T06:28:25;25.08;;;20.08;;
40204;SDS011;26963;42.666;23.366;2022-12-26T06:30:51;27.98;;;21.48;;
40204;SDS011;26963;42.666;23.366;2022-12-26T06:33:25;31.15;;;22.33;;
40204;SDS011;26963;42.666;23.366;2022-12-26T06:35:51;46.30;;;20.95;;
40204;SDS011;26963;42.666;23.366;2022-12-26T06:38:16;31.23;;;20.50;;
40204;SDS011;26963;42.666;23.366;2022-12-26T06:40:42;27.90;;;19.70;;
40204;SDS011;26963;42.666;23.366;2022-12-26T06:43:07;36.20;;;20.27;;
40204;SDS011;26963;42.666;23.366;2022-12-26T06:45:33;24.13;;;18.45;;
40204;SDS011;26963;42.666;23.366;2022-12-26T06:47:59;25.67;;;17.83;;
40204;SDS011;26963;42.666;23.366;2022-12-26T06:50:25;24.02;;;15.95;;
40204;SDS011;26963;42.666;23.366;2022-12-26T06:52:51;26.05;;;18.27;;
40204;SDS011;26963;42.666;23.366;2022-12-26T06:55:35;28.83;;;21.15;;
40204;SDS011;26963;42.666;23.366;2022-12-26T06:58:01;35.50;;;22.85;;
40204;SDS011;26963;42.666;23.366;2022-12-26T07:00:26;23.65;;;17.30;;
40204;SDS011;26963;42.666;23.366;2022-12-26T07:02:54;21.67;;;15.00;;
40204;SDS011;26963;42.666;23.366;2022-12-26T07:05:19;27.70;;;16.48;;
40204;SDS011;26963;42.666;23.366;2022-12-26T07:07:49;27.08;;;17.95;;
40204;SDS011;26963;42.666;23.366;2022-12-26T07:12:46;24.00;;;17.45;;
40204;SDS011;26963;42.666;23.366;2022-12-26T07:15:12;22.52;;;16.85;;
40204;SDS011;26963;42.666;23.366;2022-12-26T07:17:38;22.92;;;17.30;;
40204;SDS011;26963;42.666;23.366;2022-12-26T07:20:04;24.90;;;18.15;;
40204;SDS011;26963;42.666;23.366;2022-12-26T07:22:30;24.15;;;17.38;;
40204;SDS011;26963;42.666;23.366;2022-12-26T07:24:56;24.02;;;17.65;;
40204;SDS011;26963;42.666;23.366;2022-12-26T07:27:21;26.05;;;18.10;;
40204;SDS011;26963;42.666;23.366;2022-12-26T07:29:50;25.73;;;18.38;;
40204;SDS011;26963;42.666;23.366;2022-12-26T07:32:15;30.98;;;19.48;;
40204;SDS011;26963;42.666;23.366;2022-12-26T07:34:44;25.60;;;18.48;;
40204;SDS011;26963;42.666;23.366;2022-12-26T07:37:09;26.48;;;19.60;;
40204;SDS011;26963;42.666;23.366;2022-12-26T07:39:35;27.83;;;20.88;;
40204;SDS011;26963;42.666;23.366;2022-12-26T07:42:02;30.17;;;21.15;;
40204;SDS011;26963;42.666;23.366;2022-12-26T07:44:30;25.55;;;20.08;;
40204;SDS011;26963;42.666;23.366;2022-12-26T07:46:57;26.75;;;19.38;;
40204;SDS011;26963;42.666;23.366;2022-12-26T07:49:23;21.05;;;14.98;;
40204;SDS011;26963;42.666;23.366;2022-12-26T07:51:50;18.92;;;12.80;;
40204;SDS011;26963;42.666;23.366;2022-12-26T07:54:16;16.58;;;11.27;;
40204;SDS011;26963;42.666;23.366;2022-12-26T07:56:41;20.00;;;14.50;;
40204;SDS011;26963;42.666;23.366;2022-12-26T07:59:10;21.88;;;13.75;;
40204;SDS011;26963;42.666;23.366;2022-12-26T08:01:40;18.10;;;14.05;;
40204;SDS011;26963;42.666;23.366;2022-12-26T08:04:09;29.05;;;21.33;;
40204;SDS011;26963;42.666;23.366;2022-12-26T08:06:35;35.67;;;23.70;;
40204;SDS011;26963;42.666;23.366;2022-12-26T08:09:01;30.50;;;21.15;;
40204;SDS011;26963;42.666;23.366;2022-12-26T08:11:26;28.80;;;20.58;;
40204;SDS011;26963;42.666;23.366;2022-12-26T08:13:56;27.92;;;18.50;;
40204;SDS011;26963;42.666;23.366;2022-12-26T08:16:21;25.98;;;19.00;;
40204;SDS011;26963;42.666;23.366;2022-12-26T08:18:47;26.50;;;17.48;;
40204;SDS011;26963;42.666;23.366;2022-12-26T08:21:13;24.00;;;18.08;;
40204;SDS011;26963;42.666;23.366;2022-12-26T08:23:38;25.23;;;18.95;;
40204;SDS011;26963;42.666;23.366;2022-12-26T08:26:08;24.42;;;19.05;;
40204;SDS011;26963;42.666;23.366;2022-12-26T08:28:35;24.85;;;19.42;;
40204;SDS011;26963;42.666;23.366;2022-12-26T08:31:05;23.08;;;16.77;;
40204;SDS011;26963;42.666;23.366;2022-12-26T08:33:31;22.27;;;17.13;;
40204;SDS011;26963;42.666;23.366;2022-12-26T08:36:00;20.67;;;16.50;;
40204;SDS011;26963;42.666;23.366;2022-12-26T08:38:26;22.35;;;17.25;;
40204;SDS011;26963;42.666;23.366;2022-12-26T08:40:55;24.20;;;17.27;;
40204;SDS011;26963;42.666;23.366;2022-12-26T08:43:21;23.70;;;16.83;;
40204;SDS011;26963;42.666;23.366;2022-12-26T08:45:58;24.23;;;17.27;;
40204;SDS011;26963;42.666;23.366;2022-12-26T08:48:23;22.75;;;17.20;;
40204;SDS011;26963;42.666;23.366;2022-12-26T08:50:54;22.65;;;16.77;;
40204;SDS011;26963;42.666;23.366;2022-12-26T08:53:23;21.67;;;16.60;;
40204;SDS011;26963;42.666;23.366;2022-12-26T08:55:49;23.88;;;17.33;;
40204;SDS011;26963;42.666;23.366;2022-12-26T08:58:15;24.65;;;18.48;;
40204;SDS011;26963;42.666;23.366;2022-12-26T09:00:40;25.83;;;19.60;;
40204;SDS011;26963;42.666;23.366;2022-12-26T09:03:08;24.60;;;19.33;;
40204;SDS011;26963;42.666;23.366;2022-12-26T09:05:34;23.88;;;19.05;;
40204;SDS011;26963;42.666;23.366;2022-12-26T09:07:59;25.02;;;19.52;;
40204;SDS011;26963;42.666;23.366;2022-12-26T09:10:25;25.35;;;18.45;;
40204;SDS011;26963;42.666;23.366;2022-12-26T09:12:51;22.27;;;17.05;;
40204;SDS011;26963;42.666;23.366;2022-12-26T09:15:16;23.27;;;18.48;;
40204;SDS011;26963;42.666;23.366;2022-12-26T09:17:42;21.52;;;17.08;;
40204;SDS011;26963;42.666;23.366;2022-12-26T09:20:08;22.85;;;17.05;;
40204;SDS011;26963;42.666;23.366;2022-12-26T09:22:34;20.90;;;16.60;;
40204;SDS011;26963;42.666;23.366;2022-12-26T09:25:15;22.73;;;16.90;;
40204;SDS011;26963;42.666;23.366;2022-12-26T09:27:44;22.02;;;16.75;;
40204;SDS011;26963;42.666;23.366;2022-12-26T09:30:10;25.17;;;18.80;;
40204;SDS011;26963;42.666;23.366;2022-12-26T09:32:37;25.73;;;17.50;;
40204;SDS011;26963;42.666;23.366;2022-12-26T09:35:02;24.90;;;17.90;;
40204;SDS011;26963;42.666;23.366;2022-12-26T09:37:28;22.95;;;17.75;;
40204;SDS011;26963;42.666;23.366;2022-12-26T09:39:54;24.90;;;18.88;;
40204;SDS011;26963;42.666;23.366;2022-12-26T09:47:30;25.33;;;19.63;;
40204;SDS011;26963;42.666;23.366;2022-12-26T09:50:00;24.98;;;18.92;;
40204;SDS011;26963;42.666;23.366;2022-12-26T09:55:48;25.25;;;19.33;;
40204;SDS011;26963;42.666;23.366;2022-12-26T09:58:25;23.30;;;18.27;;
40204;SDS011;26963;42.666;23.366;2022-12-26T10:05:56;24.95;;;18.10;;
40204;SDS011;26963;42.666;23.366;2022-12-26T10:14:09;21.95;;;17.33;;
40204;SDS011;26963;42.666;23.366;2022-12-26T10:24:48;23.20;;;16.88;;
40204;SDS011;26963;42.666;23.366;2022-12-26T10:27:16;24.05;;;16.75;;
40204;SDS011;26963;42.666;23.366;2022-12-26T10:30:03;21.30;;;16.23;;
40204;SDS011;26963;42.666;23.366;2022-12-26T10:32:35;21.90;;;16.85;;
40204;SDS011;26963;42.666;23.366;2022-12-26T10:35:21;18.40;;;14.30;;
40204;SDS011;26963;42.666;23.366;2022-12-26T10:37:52;18.20;;;13.80;;
40204;SDS011;26963;42.666;23.366;2022-12-26T10:40:21;19.42;;;12.95;;
40204;SDS011;26963;42.666;23.366;2022-12-26T10:42:55;17.30;;;12.77;;
40204;SDS011;26963;42.666;23.366;2022-12-26T10:47:57;24.65;;;16.48;;
40204;SDS011;26963;42.666;23.366;2022-12-26T10:50:30;20.08;;;12.63;;
40204;SDS011;26963;42.666;23.366;2022-12-26T10:52:57;29.92;;;17.75;;
40204;SDS011;26963;42.666;23.366;2022-12-26T10:55:28;20.05;;;14.10;;
40204;SDS011;26963;42.666;23.366;2022-12-26T10:58:00;18.45;;;12.85;;
40204;SDS011;26963;42.666;23.366;2022-12-26T11:00:29;16.60;;;12.85;;
40204;SDS011;26963;42.666;23.366;2022-12-26T11:03:02;18.13;;;13.95;;
40204;SDS011;26963;42.666;23.366;2022-12-26T11:05:39;20.27;;;14.25;;
40204;SDS011;26963;42.666;23.366;2022-12-26T11:13:48;16.33;;;11.18;;
40204;SDS011;26963;42.666;23.366;2022-12-26T11:16:40;19.73;;;11.60;;
40204;SDS011;26963;42.666;23.366;2022-12-26T11:19:29;16.13;;;11.20;;
40204;SDS011;26963;42.666;23.366;2022-12-26T11:27:33;14.68;;;9.43;;
40204;SDS011;26963;42.666;23.366;2022-12-26T11:32:41;14.38;;;9.60;;
40204;SDS011;26963;42.666;23.366;2022-12-26T11:35:29;14.07;;;9.23;;
40204;SDS011;26963;42.666;23.366;2022-12-26T11:38:01;14.80;;;8.80;;
40204;SDS011;26963;42.666;23.366;2022-12-26T11:40:45;13.68;;;10.15;;
40204;SDS011;26963;42.666;23.366;2022-12-26T11:43:30;16.10;;;9.50;;
40204;SDS011;26963;42.666;23.366;2022-12-26T11:45:57;13.13;;;9.15;;
40204;SDS011;26963;42.666;23.366;2022-12-26T11:48:24;13.68;;;9.50;;
40204;SDS011;26963;42.666;23.366;2022-12-26T11:50:51;15.35;;;9.52;;
40204;SDS011;26963;42.666;23.366;2022-12-26T11:53:21;13.95;;;9.13;;
40204;SDS011;26963;42.666;23.366;2022-12-26T11:56:00;17.10;;;10.73;;
40204;SDS011;26963;42.666;23.366;2022-12-26T11:58:28;18.58;;;12.35;;
40204;SDS011;26963;42.666;23.366;2022-12-26T12:11:39;18.00;;;13.23;;
40204;SDS011;26963;42.666;23.366;2022-12-26T12:27:34;17.40;;;11.45;;
40204;SDS011;26963;42.666;23.366;2022-12-26T12:30:19;15.98;;;11.85;;
40204;SDS011;26963;42.666;23.366;2022-12-26T12:36:49;14.48;;;10.07;;
40204;SDS011;26963;42.666;23.366;2022-12-26T12:39:11;12.73;;;8.30;;
40204;SDS011;26963;42.666;23.366;2022-12-26T12:44:56;17.70;;;12.93;;
40204;SDS011;26963;42.666;23.366;2022-12-26T12:50:45;12.25;;;7.90;;
40204;SDS011;26963;42.666;23.366;2022-12-26T12:56:24;9.68;;;6.72;;
40204;SDS011;26963;42.666;23.366;2022-12-26T13:01:41;12.68;;;8.40;;
40204;SDS011;26963;42.666;23.366;2022-12-26T13:04:15;15.00;;;8.93;;
40204;SDS011;26963;42.666;23.366;2022-12-26T13:07:08;12.85;;;8.05;;
40204;SDS011;26963;42.666;23.366;2022-12-26T13:09:46;14.20;;;8.57;;
40204;SDS011;26963;42.666;23.366;2022-12-26T13:12:32;14.52;;;8.70;;
40204;SDS011;26963;42.666;23.366;2022-12-26T13:15:07;14.63;;;8.00;;
40204;SDS011;26963;42.666;23.366;2022-12-26T13:18:14;14.18;;;8.73;;
40204;SDS011;26963;42.666;23.366;2022-12-26T13:23:21;10.65;;;7.68;;
40204;SDS011;26963;42.666;23.366;2022-12-26T13:26:34;16.17;;;7.90;;
40204;SDS011;26963;42.666;23.366;2022-12-26T13:29:06;12.05;;;7.45;;
40204;SDS011;26963;42.666;23.366;2022-12-26T13:31:49;9.88;;;5.25;;
40204;SDS011;26963;42.666;23.366;2022-12-26T13:34:15;10.98;;;5.13;;
40204;SDS011;26963;42.666;23.366;2022-12-26T13:36:47;8.57;;;5.40;;
40204;SDS011;26963;42.666;23.366;2022-12-26T13:42:15;11.07;;;5.82;;
40204;SDS011;26963;42.666;23.366;2022-12-26T13:53:55;10.07;;;6.20;;
40204;SDS011;26963;42.666;23.366;2022-12-26T14:02:13;10.65;;;6.18;;
40204;SDS011;26963;42.666;23.366;2022-12-26T14:21:39;8.77;;;5.03;;
40204;SDS011;26963;42.666;23.366;2022-12-26T14:26:42;9.25;;;5.35;;
40204;SDS011;26963;42.666;23.366;2022-12-26T14:40:37;7.50;;;5.07;;
40204;SDS011;26963;42.666;23.366;2022-12-26T14:43:39;10.52;;;6.30;;
40204;SDS011;26963;42.666;23.366;2022-12-26T14:49:15;11.98;;;6.75;;
40204;SDS011;26963;42.666;23.366;2022-12-26T14:51:43;10.35;;;5.93;;
40204;SDS011;26963;42.666;23.366;2022-12-26T14:56:46;11.10;;;6.65;;
40204;SDS011;26963;42.666;23.366;2022-12-26T14:59:31;11.63;;;6.50;;
40204;SDS011;26963;42.666;23.366;2022-12-26T15:19:13;26.10;;;13.30;;
40204;SDS011;26963;42.666;23.366;2022-12-26T15:33:22;21.67;;;12.35;;
40204;SDS011;26963;42.666;23.366;2022-12-26T15:41:44;23.60;;;12.98;;
40204;SDS011;26963;42.666;23.366;2022-12-26T16:00:51;23.00;;;11.85;;
40204;SDS011;26963;42.666;23.366;2022-12-26T16:05:56;23.15;;;14.02;;
40204;SDS011;26963;42.666;23.366;2022-12-26T16:08:53;28.00;;;12.30;;
40204;SDS011;26963;42.666;23.366;2022-12-26T16:11:29;23.45;;;13.05;;
40204;SDS011;26963;42.666;23.366;2022-12-26T16:16:52;22.10;;;12.98;;
40204;SDS011;26963;42.666;23.366;2022-12-26T16:21:54;20.90;;;12.40;;
40204;SDS011;26963;42.666;23.366;2022-12-26T16:24:43;23.17;;;13.43;;
40204;SDS011;26963;42.666;23.366;2022-12-26T16:27:15;29.00;;;15.00;;
40204;SDS011;26963;42.666;23.366;2022-12-26T16:29:47;27.75;;;14.90;;
40204;SDS011;26963;42.666;23.366;2022-12-26T16:32:37;28.88;;;15.20;;
40204;SDS011;26963;42.666;23.366;2022-12-26T16:35:06;31.35;;;14.85;;
40204;SDS011;26963;42.666;23.366;2022-12-26T16:37:39;25.95;;;14.25;;
40204;SDS011;26963;42.666;23.366;2022-12-26T16:42:41;26.05;;;15.75;;
40204;SDS011;26963;42.666;23.366;2022-12-26T16:45:17;46.45;;;26.73;;
40204;SDS011;26963;42.666;23.366;2022-12-26T16:47:44;45.95;;;26.63;;
40204;SDS011;26963;42.666;23.366;2022-12-26T16:50:23;45.20;;;25.65;;
40204;SDS011;26963;42.666;23.366;2022-12-26T16:53:02;39.15;;;23.23;;
40204;SDS011;26963;42.666;23.366;2022-12-26T16:58:49;35.10;;;20.65;;
40204;SDS011;26963;42.666;23.366;2022-12-26T17:01:03;32.22;;;20.27;;
40204;SDS011;26963;42.666;23.366;2022-12-26T17:04:14;34.30;;;18.85;;
40204;SDS011;26963;42.666;23.366;2022-12-26T17:06:26;33.13;;;19.83;;
40204;SDS011;26963;42.666;23.366;2022-12-26T17:11:28;32.55;;;20.17;;
40204;SDS011;26963;42.666;23.366;2022-12-26T17:13:55;39.90;;;22.15;;
40204;SDS011;26963;42.666;23.366;2022-12-26T17:16:23;37.85;;;22.40;;
40204;SDS011;26963;42.666;23.366;2022-12-26T17:18:53;40.00;;;23.02;;
40204;SDS011;26963;42.666;23.366;2022-12-26T17:26:36;52.55;;;32.80;;
40204;SDS011;26963;42.666;23.366;2022-12-26T17:29:03;57.72;;;33.70;;
40204;SDS011;26963;42.666;23.366;2022-12-26T17:34:23;55.92;;;30.70;;
40204;SDS011;26963;42.666;23.366;2022-12-26T17:36:50;42.42;;;28.13;;
40204;SDS011;26963;42.666;23.366;2022-12-26T17:39:21;46.38;;;27.63;;
40204;SDS011;26963;42.666;23.366;2022-12-26T17:41:51;48.50;;;29.17;;
40204;SDS011;26963;42.666;23.366;2022-12-26T17:47:02;48.27;;;29.07;;
40204;SDS011;26963;42.666;23.366;2022-12-26T17:49:37;45.92;;;29.33;;
40204;SDS011;26963;42.666;23.366;2022-12-26T17:52:02;48.35;;;32.03;;
40204;SDS011;26963;42.666;23.366;2022-12-26T17:54:28;49.33;;;30.73;;
40204;SDS011;26963;42.666;23.366;2022-12-26T17:56:54;47.58;;;29.77;;
40204;SDS011;26963;42.666;23.366;2022-12-26T17:59:19;44.90;;;29.60;;
40204;SDS011;26963;42.666;23.366;2022-12-26T18:01:45;50.33;;;30.08;;
40204;SDS011;26963;42.666;23.366;2022-12-26T18:04:10;51.25;;;31.05;;
40204;SDS011;26963;42.666;23.366;2022-12-26T18:06:39;46.38;;;29.27;;
40204;SDS011;26963;42.666;23.366;2022-12-26T18:09:05;49.90;;;29.83;;
40204;SDS011;26963;42.666;23.366;2022-12-26T18:11:31;46.50;;;29.90;;
40204;SDS011;26963;42.666;23.366;2022-12-26T18:13:56;44.00;;;27.77;;
40204;SDS011;26963;42.666;23.366;2022-12-26T18:16:22;46.08;;;28.20;;
40204;SDS011;26963;42.666;23.366;2022-12-26T18:18:55;45.28;;;27.40;;
40204;SDS011;26963;42.666;23.366;2022-12-26T18:21:36;46.58;;;30.27;;
40204;SDS011;26963;42.666;23.366;2022-12-26T18:24:10;40.95;;;27.58;;
40204;SDS011;26963;42.666;23.366;2022-12-26T18:26:37;40.03;;;27.50;;
40204;SDS011;26963;42.666;23.366;2022-12-26T18:29:03;46.72;;;28.73;;
40204;SDS011;26963;42.666;23.366;2022-12-26T18:31:29;45.72;;;28.55;;
40204;SDS011;26963;42.666;23.366;2022-12-26T18:33:55;48.25;;;32.20;;
40204;SDS011;26963;42.666;23.366;2022-12-26T18:36:26;53.63;;;32.55;;
40204;SDS011;26963;42.666;23.366;2022-12-26T18:38:55;50.75;;;30.52;;
40204;SDS011;26963;42.666;23.366;2022-12-26T18:41:20;48.58;;;29.77;;
40204;SDS011;26963;42.666;23.366;2022-12-26T18:43:46;55.40;;;31.00;;
40204;SDS011;26963;42.666;23.366;2022-12-26T18:46:22;50.05;;;30.85;;
40204;SDS011;26963;42.666;23.366;2022-12-26T18:48:49;46.17;;;30.60;;
40204;SDS011;26963;42.666;23.366;2022-12-26T18:51:18;50.92;;;30.63;;
40204;SDS011;26963;42.666;23.366;2022-12-26T18:53:44;57.10;;;32.63;;
40204;SDS011;26963;42.666;23.366;2022-12-26T18:56:13;49.53;;;32.15;;
40204;SDS011;26963;42.666;23.366;2022-12-26T18:58:42;52.80;;;31.52;;